Time;durP1;ratioP1;P1;durP2;ratioP2;P2;SDS_P1;SDS_P2;PMS_P1;PMS_P2;Temp;Humidity;BMP_temperature;BMP_pressure;BME280_temperature;BME280_humidity;BME280_pressure;Samples;Min_cycle;Max_cycle;Signal;HPM_P1;HPM_P2
2021/12/29 00:00:41;;;;;;;11.55;1.73;;;9.90;99.90;;;;;;5116197;28;20035;-83
2021/12/29 00:03:07;;;;;;;18.05;2.10;;;9.90;99.90;;;;;;5097843;28;20023;-83
2021/12/29 00:05:33;;;;;;;13.88;1.83;;;9.90;99.90;;;;;;5098348;28;20054;-83
2021/12/29 00:08:00;;;;;;;15.73;2.20;;;9.90;99.90;;;;;;5097850;28;20055;-83
2021/12/29 00:10:27;;;;;;;9.57;1.92;;;9.90;99.90;;;;;;5098577;28;20122;-83
2021/12/29 00:12:54;;;;;;;13.50;2.05;;;9.80;99.90;;;;;;5096947;28;20449;-83
2021/12/29 00:15:24;;;;;;;6.90;1.27;;;9.80;99.90;;;;;;5098329;28;20120;-83
2021/12/29 00:17:50;;;;;;;12.20;1.58;;;9.80;99.90;;;;;;5097796;28;20483;-83
2021/12/29 00:20:19;;;;;;;9.27;1.58;;;9.90;99.90;;;;;;5098173;28;20032;-83
2021/12/29 00:22:45;;;;;;;10.90;2.03;;;9.80;99.90;;;;;;5097950;28;20046;-82
2021/12/29 00:25:12;;;;;;;11.93;1.67;;;9.80;99.90;;;;;;5098002;28;20173;-83
2021/12/29 00:27:38;;;;;;;10.90;1.92;;;9.80;99.90;;;;;;5098145;28;20035;-83
2021/12/29 00:30:06;;;;;;;10.25;1.48;;;9.80;99.90;;;;;;5115597;28;20035;-83
2021/12/29 00:32:32;;;;;;;6.80;1.80;;;9.80;99.90;;;;;;5097827;28;20024;-84
2021/12/29 00:34:57;;;;;;;7.22;1.60;;;9.80;99.90;;;;;;5097481;28;20484;-83
2021/12/29 00:37:23;;;;;;;7.20;1.23;;;9.80;99.90;;;;;;5097825;28;20031;-83
2021/12/29 00:39:48;;;;;;;8.13;1.98;;;9.80;99.90;;;;;;5097279;28;20066;-83
2021/12/29 00:42:14;;;;;;;10.50;1.33;;;9.80;99.90;;;;;;5097867;28;20030;-83
2021/12/29 00:44:40;;;;;;;10.38;1.77;;;9.80;99.90;;;;;;5097740;28;20383;-83
2021/12/29 00:47:06;;;;;;;7.53;1.50;;;9.80;99.90;;;;;;5115135;28;20563;-83
2021/12/29 00:49:36;;;;;;;10.55;1.55;;;9.80;99.90;;;;;;5097447;28;20118;-83
2021/12/29 00:52:05;;;;;;;14.43;1.80;;;9.80;99.90;;;;;;5115299;28;20023;-83
2021/12/29 00:54:31;;;;;;;13.80;2.28;;;9.80;99.90;;;;;;5115498;28;20028;-83
2021/12/29 00:56:57;;;;;;;10.02;1.38;;;9.80;99.90;;;;;;5096828;28;20024;-83
2021/12/29 00:59:23;;;;;;;11.27;1.50;;;9.80;99.90;;;;;;5097481;28;20061;-83
2021/12/29 01:01:50;;;;;;;12.45;1.30;;;9.80;99.90;;;;;;5096608;28;20066;-82
2021/12/29 01:04:17;;;;;;;9.05;1.52;;;9.80;99.90;;;;;;5097290;28;20032;-84
2021/12/29 01:06:42;;;;;;;10.40;1.50;;;9.80;99.90;;;;;;5097294;28;20032;-83
2021/12/29 01:09:08;;;;;;;6.35;1.10;;;9.80;99.90;;;;;;5096783;28;20172;-83
2021/12/29 01:11:34;;;;;;;13.57;1.42;;;9.80;99.90;;;;;;5115149;28;20030;-83
2021/12/29 01:13:59;;;;;;;8.13;1.30;;;9.80;99.90;;;;;;5114745;28;20063;-83
2021/12/29 01:19:24;;;;;;;4.82;1.05;;;9.80;99.90;;;;;;5114602;28;20024;-83
2021/12/29 01:21:53;;;;;;;13.35;1.17;;;9.80;99.90;;;;;;5099831;28;20531;-82
2021/12/29 01:24:25;;;;;;;7.00;1.20;;;9.80;99.90;;;;;;5114844;28;20027;-83
2021/12/29 01:26:51;;;;;;;6.90;1.27;;;9.80;99.90;;;;;;5096584;28;20460;-82
2021/12/29 01:29:17;;;;;;;9.35;1.10;;;9.80;99.90;;;;;;5114658;28;20042;-82
2021/12/29 01:31:44;;;;;;;7.63;1.40;;;9.90;99.90;;;;;;5096837;28;20055;-83
2021/12/29 01:34:10;;;;;;;7.35;1.08;;;9.80;99.90;;;;;;5096238;28;20688;-83
2021/12/29 01:36:37;;;;;;;5.18;0.73;;;9.80;99.90;;;;;;5096887;28;20031;-83
2021/12/29 01:39:06;;;;;;;5.25;0.82;;;9.80;99.90;;;;;;5114473;28;20016;-83
2021/12/29 01:41:32;;;;;;;6.88;1.00;;;9.80;99.90;;;;;;5096256;28;20023;-83
2021/12/29 01:43:58;;;;;;;8.27;0.80;;;9.80;99.90;;;;;;5095960;28;20031;-83
2021/12/29 01:46:24;;;;;;;7.38;1.00;;;9.80;99.90;;;;;;5096719;28;20118;-82
2021/12/29 01:48:50;;;;;;;6.53;0.85;;;9.80;99.90;;;;;;5114341;28;20047;-83
2021/12/29 01:51:20;;;;;;;7.65;1.40;;;9.80;99.90;;;;;;5096465;28;20030;-83
2021/12/29 01:54:00;;;;;;;10.90;1.00;;;9.80;99.90;;;;;;5096558;28;20027;-83
2021/12/29 01:56:26;;;;;;;4.07;0.80;;;9.80;99.90;;;;;;5096725;28;20042;-83
2021/12/29 01:58:52;;;;;;;4.53;0.80;;;9.80;99.90;;;;;;5096203;28;20456;-82
2021/12/29 02:01:18;;;;;;;8.48;1.38;;;9.80;99.90;;;;;;5096450;28;20088;-83
2021/12/29 02:03:43;;;;;;;5.53;0.82;;;9.80;99.90;;;;;;5114566;28;20027;-83
2021/12/29 02:06:09;;;;;;;8.43;1.23;;;9.80;99.90;;;;;;5096052;28;20034;-83
2021/12/29 02:08:35;;;;;;;9.75;1.30;;;9.80;99.90;;;;;;5096312;28;20115;-83
2021/12/29 02:11:01;;;;;;;7.72;1.52;;;9.80;99.90;;;;;;5096053;28;20472;-83
2021/12/29 02:13:28;;;;;;;9.60;1.45;;;9.80;99.90;;;;;;5096404;28;20026;-84
2021/12/29 02:15:54;;;;;;;8.43;1.13;;;9.80;99.90;;;;;;5095868;28;20024;-83
2021/12/29 02:18:20;;;;;;;5.72;0.98;;;9.80;99.90;;;;;;5096361;28;20077;-83
2021/12/29 02:20:50;;;;;;;6.03;0.82;;;9.80;99.90;;;;;;5096537;28;20024;-83
2021/12/29 02:23:21;;;;;;;6.57;0.95;;;9.80;99.90;;;;;;5095230;28;20047;-83
2021/12/29 02:25:53;;;;;;;5.13;0.93;;;9.80;99.90;;;;;;5096335;28;20027;-83
2021/12/29 02:28:23;;;;;;;7.57;0.93;;;9.80;99.90;;;;;;5096239;28;20274;-83
2021/12/29 02:30:49;;;;;;;6.57;1.10;;;9.80;99.90;;;;;;5095980;28;20035;-83
2021/12/29 02:33:16;;;;;;;6.85;0.98;;;9.80;99.90;;;;;;5095532;28;20034;-83
2021/12/29 02:35:43;;;;;;;4.45;0.70;;;9.80;99.90;;;;;;5114096;27;20093;-83
2021/12/29 02:38:17;;;;;;;5.65;0.82;;;9.80;99.90;;;;;;5099219;28;20030;-83
2021/12/29 02:40:43;;;;;;;5.38;1.13;;;9.80;99.90;;;;;;5118215;28;20055;-83
2021/12/29 02:43:12;;;;;;;3.50;0.88;;;9.80;99.90;;;;;;5099616;28;20034;-83
2021/12/29 02:45:38;;;;;;;5.60;0.82;;;9.80;99.90;;;;;;5099776;28;20034;-83
2021/12/29 02:48:03;;;;;;;7.72;1.10;;;9.80;99.90;;;;;;5099587;28;20024;-83
2021/12/29 02:50:29;;;;;;;6.78;0.98;;;9.80;99.90;;;;;;5099689;28;20035;-83
2021/12/29 02:52:55;;;;;;;3.10;0.80;;;9.80;99.90;;;;;;5099536;28;20126;-82
2021/12/29 02:55:20;;;;;;;4.35;0.70;;;9.80;99.90;;;;;;5100064;28;20375;-83
2021/12/29 02:57:46;;;;;;;3.55;0.80;;;9.80;99.90;;;;;;5099611;28;20028;-83
2021/12/29 03:00:14;;;;;;;3.33;0.60;;;9.80;99.90;;;;;;5117321;28;20031;-83
2021/12/29 03:02:40;;;;;;;6.63;1.10;;;9.80;99.90;;;;;;5099925;28;20468;-83
2021/12/29 03:05:06;;;;;;;3.17;0.63;;;9.80;99.90;;;;;;5099093;28;20036;-83
2021/12/29 03:07:31;;;;;;;2.63;0.90;;;9.80;99.90;;;;;;5117662;28;20028;-84
2021/12/29 03:09:57;;;;;;;6.43;0.90;;;9.80;99.90;;;;;;5098904;28;20116;-82
2021/12/29 03:12:23;;;;;;;4.95;0.73;;;9.80;99.90;;;;;;5099298;28;20516;-84
2021/12/29 03:14:54;;;;;;;6.38;0.63;;;9.80;99.90;;;;;;5117399;28;20023;-84
2021/12/29 03:17:20;;;;;;;4.03;0.55;;;9.80;99.90;;;;;;5098734;28;20031;-83
2021/12/29 03:19:46;;;;;;;4.72;0.70;;;9.80;99.90;;;;;;5099376;28;20112;-83
2021/12/29 03:22:12;;;;;;;3.13;0.50;;;9.80;99.90;;;;;;5098253;28;20047;-83
2021/12/29 03:24:37;;;;;;;3.00;1.02;;;9.80;99.90;;;;;;5099347;28;20020;-83
2021/12/29 03:27:03;;;;;;;5.13;0.93;;;9.80;99.90;;;;;;5116841;28;20430;-83
2021/12/29 03:29:29;;;;;;;3.97;0.60;;;9.80;99.90;;;;;;5099050;28;20130;-84
2021/12/29 03:31:54;;;;;;;3.30;0.50;;;9.80;99.90;;;;;;5098907;28;20495;-84
2021/12/29 03:34:20;;;;;;;6.07;1.25;;;9.70;99.90;;;;;;5098084;28;20091;-84
2021/12/29 03:36:46;;;;;;;2.50;0.50;;;9.80;99.90;;;;;;5098908;28;20020;-84
2021/12/29 03:39:11;;;;;;;3.60;0.70;;;9.70;99.90;;;;;;5098437;28;20151;-83
2021/12/29 03:41:37;;;;;;;6.00;1.17;;;9.70;99.90;;;;;;5098975;28;20031;-84
2021/12/29 03:44:03;;;;;;;3.95;0.40;;;9.70;99.90;;;;;;5098328;28;20035;-84
2021/12/29 03:46:29;;;;;;;4.13;0.68;;;9.70;99.90;;;;;;5098818;28;20468;-85
2021/12/29 03:48:55;;;;;;;4.60;0.60;;;9.70;99.90;;;;;;5097616;28;20020;-84
2021/12/29 03:51:21;;;;;;;2.25;0.93;;;9.60;99.90;;;;;;5098155;28;20028;-83
2021/12/29 03:53:47;;;;;;;1.70;0.50;;;9.60;99.90;;;;;;5098476;28;20023;-84
2021/12/29 03:56:13;;;;;;;1.33;0.47;;;9.60;99.90;;;;;;5098088;28;20027;-82
2021/12/29 03:58:41;;;;;;;2.22;0.70;;;9.60;99.90;;;;;;5098319;28;20472;-84
2021/12/29 04:01:11;;;;;;;7.95;0.88;;;9.60;99.90;;;;;;5098022;28;20027;-84
2021/12/29 04:03:37;;;;;;;3.53;0.52;;;9.60;99.90;;;;;;5098329;28;20028;-84
2021/12/29 04:06:03;;;;;;;3.83;0.50;;;9.60;99.90;;;;;;5097508;28;20028;-83
2021/12/29 04:08:29;;;;;;;3.28;0.40;;;9.60;99.90;;;;;;5116644;28;20034;-84
2021/12/29 04:10:55;;;;;;;2.55;0.40;;;9.60;99.90;;;;;;5098575;28;20039;-84
2021/12/29 04:13:21;;;;;;;3.20;0.60;;;9.60;99.90;;;;;;5097955;28;20027;-84
2021/12/29 04:15:47;;;;;;;4.40;0.60;;;9.60;99.90;;;;;;5098067;28;20381;-84
2021/12/29 04:18:26;;;;;;;4.35;0.57;;;9.70;99.90;;;;;;5097473;28;20027;-83
2021/12/29 04:20:55;;;;;;;3.92;0.55;;;9.60;99.90;;;;;;5098176;28;20030;-84
2021/12/29 04:23:21;;;;;;;1.05;0.38;;;9.60;99.90;;;;;;5097436;28;20051;-84
2021/12/29 04:25:51;;;;;;;2.67;0.60;;;9.70;99.90;;;;;;5098040;28;20028;-84
2021/12/29 04:28:20;;;;;;;2.30;0.40;;;9.70;99.90;;;;;;5115428;28;20030;-84
2021/12/29 04:31:07;;;;;;;3.45;0.50;;;9.70;99.90;;;;;;5097663;28;20038;-84
2021/12/29 04:33:34;;;;;;;2.10;0.40;;;9.70;99.90;;;;;;5097874;28;20038;-84
2021/12/29 04:36:00;;;;;;;5.82;0.50;;;9.70;99.90;;;;;;5097415;28;20027;-85
2021/12/29 04:38:26;;;;;;;1.13;0.28;;;9.70;99.90;;;;;;5097341;28;20026;-84
2021/12/29 04:40:54;;;;;;;5.97;0.50;;;9.60;99.90;;;;;;5097611;28;20034;-84
2021/12/29 04:43:20;;;;;;;3.17;0.43;;;9.60;99.90;;;;;;5097130;28;20028;-83
2021/12/29 04:45:47;;;;;;;3.45;0.47;;;9.60;99.90;;;;;;5097411;28;20027;-84
2021/12/29 04:48:14;;;;;;;1.05;0.50;;;9.60;99.90;;;;;;5096864;28;20023;-84
2021/12/29 04:50:42;;;;;;;1.73;0.40;;;9.60;99.90;;;;;;5097598;28;20031;-84
2021/12/29 04:53:10;;;;;;;3.05;0.40;;;9.60;99.90;;;;;;5097115;28;20020;-83
2021/12/29 04:55:36;;;;;;;1.65;0.40;;;9.60;99.90;;;;;;5097404;28;20048;-84
2021/12/29 04:58:03;;;;;;;2.80;0.63;;;9.60;99.90;;;;;;5115070;28;20468;-82
2021/12/29 05:00:30;;;;;;;2.88;0.65;;;9.60;99.90;;;;;;5114912;28;20111;-84
2021/12/29 05:02:58;;;;;;;3.05;0.40;;;9.50;99.90;;;;;;5114974;28;20089;-84
2021/12/29 05:10:41;;;;;;;2.75;0.60;;;9.40;99.90;;;;;;5115085;28;20126;-84
2021/12/29 05:13:07;;;;;;;5.38;0.60;;;9.40;99.90;;;;;;5114936;28;20091;-84
2021/12/29 05:15:33;;;;;;;4.65;0.77;;;9.40;99.90;;;;;;5097425;28;20080;-84
2021/12/29 05:17:59;;;;;;;6.07;0.90;;;9.30;99.90;;;;;;5097095;28;20118;-84
2021/12/29 05:20:29;;;;;;;6.75;0.90;;;9.30;99.90;;;;;;5096621;28;20058;-84
2021/12/29 05:22:56;;;;;;;4.43;0.98;;;9.30;99.90;;;;;;5096961;28;20066;-84
2021/12/29 05:25:22;;;;;;;5.40;1.00;;;9.30;99.90;;;;;;5114450;28;20020;-84
2021/12/29 05:27:48;;;;;;;6.53;1.48;;;9.30;99.90;;;;;;5096963;28;20027;-84
2021/12/29 05:30:14;;;;;;;8.98;1.10;;;9.30;99.90;;;;;;5114280;28;20035;-83
2021/12/29 05:32:40;;;;;;;5.72;0.93;;;9.30;99.90;;;;;;5114919;28;20038;-84
2021/12/29 05:35:07;;;;;;;6.63;1.25;;;9.30;99.90;;;;;;5114234;28;20027;-84
2021/12/29 05:37:32;;;;;;;5.80;0.90;;;9.30;99.90;;;;;;5096867;28;20020;-84
2021/12/29 05:39:58;;;;;;;8.48;0.93;;;9.30;99.90;;;;;;5096691;28;20028;-84
2021/12/29 05:42:24;;;;;;;8.20;0.98;;;9.30;99.90;;;;;;5096265;28;20569;-84
2021/12/29 05:44:49;;;;;;;8.32;1.35;;;9.30;99.90;;;;;;5114760;28;20034;-84
2021/12/29 05:47:15;;;;;;;9.00;1.38;;;9.30;99.90;;;;;;5096095;28;20028;-84
2021/12/29 05:49:40;;;;;;;8.77;1.05;;;9.30;99.90;;;;;;5096397;28;20028;-84
2021/12/29 05:52:06;;;;;;;6.97;1.08;;;9.30;99.90;;;;;;5096268;28;20030;-83
2021/12/29 05:54:32;;;;;;;7.18;1.20;;;9.30;99.90;;;;;;5096244;28;20024;-84
2021/12/29 05:56:58;;;;;;;7.38;1.00;;;9.30;99.90;;;;;;5096405;28;20123;-84
2021/12/29 05:59:24;;;;;;;5.78;1.15;;;9.30;99.90;;;;;;5114262;28;20031;-84
2021/12/29 06:01:50;;;;;;;7.45;1.52;;;9.30;99.90;;;;;;5095993;28;20043;-84
2021/12/29 06:04:15;;;;;;;5.53;1.00;;;9.30;99.90;;;;;;5095848;28;20122;-84
2021/12/29 06:06:41;;;;;;;6.55;1.30;;;9.30;99.90;;;;;;5114533;28;20369;-84
2021/12/29 06:09:07;;;;;;;5.95;1.30;;;9.30;99.90;;;;;;5095641;28;20107;-82
2021/12/29 06:11:33;;;;;;;8.23;1.35;;;9.30;99.90;;;;;;5097492;28;20032;-84
2021/12/29 06:13:59;;;;;;;6.45;1.20;;;9.30;99.90;;;;;;5100544;28;20035;-84
2021/12/29 06:16:24;;;;;;;8.48;1.40;;;9.30;99.90;;;;;;5099842;28;20385;-84
2021/12/29 06:18:50;;;;;;;9.18;1.45;;;9.30;99.90;;;;;;5100633;28;20449;-84
2021/12/29 06:21:18;;;;;;;10.05;1.48;;;9.30;99.90;;;;;;5100054;28;20032;-83
2021/12/29 06:23:45;;;;;;;4.80;1.17;;;9.30;99.90;;;;;;5118612;28;20408;-84
2021/12/29 06:26:11;;;;;;;5.45;1.00;;;9.30;99.90;;;;;;5099822;28;20019;-84
2021/12/29 06:28:36;;;;;;;8.45;1.02;;;9.30;99.90;;;;;;5117844;28;20084;-84
2021/12/29 06:31:02;;;;;;;4.70;1.05;;;9.30;99.90;;;;;;5100059;28;20032;-84
2021/12/29 06:33:28;;;;;;;12.05;1.27;;;9.30;99.90;;;;;;5099734;28;20067;-84
2021/12/29 06:35:53;;;;;;;4.28;1.00;;;9.40;99.90;;;;;;5100261;28;20079;-84
2021/12/29 06:38:19;;;;;;;5.20;1.00;;;9.40;99.90;;;;;;5117655;28;20027;-84
2021/12/29 06:40:45;;;;;;;12.82;1.55;;;9.30;99.90;;;;;;5117987;28;20077;-84
2021/12/29 06:43:10;;;;;;;8.75;1.20;;;9.30;99.90;;;;;;5099638;28;20110;-83
2021/12/29 06:45:36;;;;;;;7.88;1.08;;;9.30;99.90;;;;;;5117955;28;20107;-84
2021/12/29 06:48:02;;;;;;;5.93;0.70;;;9.30;99.90;;;;;;5117924;28;20028;-84
2021/12/29 06:50:28;;;;;;;7.22;1.08;;;9.30;99.90;;;;;;5099471;28;20447;-84
2021/12/29 06:52:54;;;;;;;2.35;0.80;;;9.30;99.90;;;;;;5117868;28;20522;-84
2021/12/29 06:55:20;;;;;;;4.90;0.88;;;9.20;99.90;;;;;;5099205;28;20050;-84
2021/12/29 06:57:45;;;;;;;6.05;1.20;;;9.20;99.90;;;;;;5099695;28;20524;-84
2021/12/29 07:00:12;;;;;;;9.23;1.70;;;9.30;99.90;;;;;;5099122;28;20384;-84
2021/12/29 07:02:37;;;;;;;5.00;1.35;;;9.30;99.90;;;;;;5099515;28;20019;-84
2021/12/29 07:05:04;;;;;;;4.28;0.98;;;9.30;99.90;;;;;;5099681;28;20042;-85
2021/12/29 07:07:29;;;;;;;6.68;1.00;;;9.30;99.90;;;;;;5099107;28;20211;-85
2021/12/29 07:09:55;;;;;;;7.25;1.02;;;9.30;99.90;;;;;;5099604;28;20027;-85
2021/12/29 07:12:21;;;;;;;5.75;1.00;;;9.40;99.90;;;;;;5099131;28;20452;-85
2021/12/29 07:14:47;;;;;;;6.20;0.80;;;9.40;99.90;;;;;;5099476;28;20114;-85
2021/12/29 07:17:13;;;;;;;2.72;0.68;;;9.30;99.90;;;;;;5099117;28;20080;-85
2021/12/29 07:19:38;;;;;;;3.53;0.75;;;9.40;99.90;;;;;;5099445;28;20030;-84
2021/12/29 07:22:06;;;;;;;6.18;0.85;;;9.40;99.90;;;;;;5098879;28;20365;-84
2021/12/29 07:24:33;;;;;;;3.10;0.73;;;9.40;99.90;;;;;;5098708;28;20031;-84
2021/12/29 07:26:58;;;;;;;5.00;0.77;;;9.40;99.90;;;;;;5099496;28;20031;-84
2021/12/29 07:29:24;;;;;;;2.10;0.50;;;9.40;99.90;;;;;;5116718;28;20036;-83
2021/12/29 07:31:50;;;;;;;4.15;0.90;;;9.40;99.90;;;;;;5099136;28;20055;-84
2021/12/29 07:34:16;;;;;;;5.80;1.05;;;9.30;99.90;;;;;;5098555;28;20130;-84
2021/12/29 07:36:42;;;;;;;4.88;0.95;;;9.30;99.90;;;;;;5099195;28;20059;-85
2021/12/29 07:39:11;;;;;;;2.45;0.47;;;9.30;99.90;;;;;;5098834;28;20030;-86
2021/12/29 07:41:38;;;;;;;4.80;1.15;;;9.30;99.90;;;;;;5117082;28;20027;-85
2021/12/29 07:44:04;;;;;;;1.40;0.50;;;9.30;99.90;;;;;;5100689;28;20460;-85
2021/12/29 07:46:33;;;;;;;3.42;0.63;;;9.40;99.90;;;;;;5098534;28;20040;-85
2021/12/29 07:49:00;;;;;;;3.38;0.52;;;9.30;99.90;;;;;;5099079;28;20350;-85
2021/12/29 07:51:26;;;;;;;3.50;0.52;;;9.40;99.90;;;;;;5116336;28;20035;-85
2021/12/29 07:53:52;;;;;;;2.88;0.60;;;9.40;99.90;;;;;;5118642;28;20019;-85
2021/12/29 07:56:18;;;;;;;1.75;0.40;;;9.40;99.90;;;;;;5098380;28;20161;-85
2021/12/29 07:58:44;;;;;;;1.67;0.50;;;9.40;99.90;;;;;;5099082;28;20023;-85
2021/12/29 08:01:09;;;;;;;2.50;0.65;;;9.40;99.90;;;;;;5098542;28;20536;-85
2021/12/29 08:03:36;;;;;;;1.27;0.30;;;9.40;99.90;;;;;;5098420;28;20032;-85
2021/12/29 08:06:02;;;;;;;1.50;0.45;;;9.40;99.90;;;;;;5116430;28;20027;-85
2021/12/29 08:08:28;;;;;;;4.68;0.80;;;9.40;99.90;;;;;;5098239;28;20020;-84
2021/12/29 08:10:53;;;;;;;3.78;0.65;;;9.40;99.90;;;;;;5098543;28;20073;-84
2021/12/29 08:13:19;;;;;;;4.65;0.52;;;9.40;99.90;;;;;;5097874;28;20051;-83
2021/12/29 08:15:45;;;;;;;3.47;0.60;;;9.40;99.90;;;;;;5098245;28;20028;-83
2021/12/29 08:18:11;;;;;;;6.22;0.80;;;9.50;99.90;;;;;;5098249;28;20057;-83
2021/12/29 08:20:37;;;;;;;4.50;0.63;;;9.50;99.90;;;;;;5097790;28;20035;-83
2021/12/29 08:23:04;;;;;;;3.38;0.70;;;9.50;99.90;;;;;;5094364;28;20052;-83
2021/12/29 08:25:31;;;;;;;4.82;0.68;;;9.50;99.90;;;;;;5094421;28;20028;-83
2021/12/29 08:27:57;;;;;;;3.53;0.50;;;9.50;99.90;;;;;;5094516;28;20460;-83
2021/12/29 08:30:23;;;;;;;1.73;0.60;;;9.50;99.90;;;;;;5094199;28;20036;-83
2021/12/29 08:32:49;;;;;;;2.67;0.60;;;9.50;99.90;;;;;;5094448;28;20035;-83
2021/12/29 08:35:15;;;;;;;3.08;0.77;;;9.50;99.90;;;;;;5093328;28;20032;-82
2021/12/29 08:37:41;;;;;;;2.13;0.73;;;9.60;99.90;;;;;;5094459;28;20054;-83
2021/12/29 08:40:08;;;;;;;2.88;0.43;;;9.60;99.90;;;;;;5094803;28;20487;-83
2021/12/29 08:42:35;;;;;;;2.83;0.52;;;9.50;99.90;;;;;;5093753;28;20530;-83
2021/12/29 08:45:01;;;;;;;3.22;0.40;;;9.60;99.90;;;;;;5095234;28;20028;-83
2021/12/29 08:47:27;;;;;;;3.95;0.55;;;9.60;99.90;;;;;;5093751;28;20027;-83
2021/12/29 08:49:52;;;;;;;3.85;0.85;;;9.60;99.90;;;;;;5095223;28;20036;-84
2021/12/29 08:52:18;;;;;;;3.78;0.50;;;9.70;99.90;;;;;;5094008;28;20024;-83
2021/12/29 08:54:44;;;;;;;3.25;0.60;;;9.70;99.90;;;;;;5094231;28;20031;-85
2021/12/29 08:57:10;;;;;;;3.70;0.95;;;9.70;99.90;;;;;;5094172;28;20024;-84
2021/12/29 08:59:35;;;;;;;7.13;1.38;;;9.70;99.90;;;;;;5093660;28;20683;-84
2021/12/29 09:02:01;;;;;;;4.43;1.00;;;9.70;99.90;;;;;;5093814;28;20035;-83
2021/12/29 09:04:27;;;;;;;4.60;0.75;;;9.80;99.90;;;;;;5093656;28;20028;-84
2021/12/29 09:06:53;;;;;;;2.55;0.75;;;9.80;99.90;;;;;;5094257;28;20027;-85
2021/12/29 09:09:19;;;;;;;3.60;1.05;;;9.80;99.90;;;;;;5093494;28;20034;-84
2021/12/29 09:11:45;;;;;;;3.45;1.05;;;9.70;99.90;;;;;;5093984;28;20054;-84
2021/12/29 09:14:11;;;;;;;3.92;0.68;;;9.80;99.90;;;;;;5094247;28;20032;-83
2021/12/29 09:16:36;;;;;;;3.88;0.68;;;9.80;99.90;;;;;;5093426;28;20252;-83
2021/12/29 09:19:04;;;;;;;6.15;0.85;;;9.80;99.90;;;;;;5093476;28;20024;-83
2021/12/29 09:21:31;;;;;;;2.20;0.70;;;9.80;99.90;;;;;;5094922;28;20030;-83
2021/12/29 09:23:57;;;;;;;4.05;0.70;;;9.80;99.90;;;;;;5097346;28;20024;-83
2021/12/29 09:26:23;;;;;;;4.50;0.90;;;9.80;99.90;;;;;;5114424;28;20177;-83
2021/12/29 09:28:49;;;;;;;4.50;0.75;;;9.80;99.90;;;;;;5096977;28;20031;-83
2021/12/29 09:31:18;;;;;;;5.30;1.13;;;9.80;99.90;;;;;;5096675;28;20469;-83
2021/12/29 09:33:45;;;;;;;1.77;0.60;;;9.90;99.90;;;;;;5096925;28;20473;-83
2021/12/29 09:36:11;;;;;;;1.75;0.60;;;9.90;99.90;;;;;;5097219;28;20468;-83
2021/12/29 09:38:41;;;;;;;5.20;0.90;;;9.90;99.90;;;;;;5096459;28;20023;-83
2021/12/29 09:41:10;;;;;;;4.60;0.95;;;9.90;99.90;;;;;;5096595;28;20033;-83
2021/12/29 09:43:37;;;;;;;3.88;0.60;;;9.90;99.90;;;;;;5096154;28;20024;-83
2021/12/29 09:46:05;;;;;;;6.03;1.25;;;9.90;99.90;;;;;;5096796;28;20020;-83
2021/12/29 09:48:30;;;;;;;3.15;0.90;;;9.90;99.90;;;;;;5096112;28;20034;-83
2021/12/29 09:50:56;;;;;;;3.97;0.82;;;10.00;99.90;;;;;;5114221;28;20028;-83
2021/12/29 09:53:22;;;;;;;4.15;0.90;;;10.00;99.90;;;;;;5096300;28;20036;-84
2021/12/29 09:55:48;;;;;;;6.38;1.35;;;10.00;99.90;;;;;;5096580;28;20028;-83
2021/12/29 09:58:17;;;;;;;4.78;0.68;;;10.00;99.90;;;;;;5096856;28;20046;-83
2021/12/29 10:00:48;;;;;;;3.95;0.73;;;10.00;99.90;;;;;;5096348;28;20027;-83
2021/12/29 10:03:17;;;;;;;5.20;0.82;;;10.00;99.90;;;;;;5096329;28;20085;-83
2021/12/29 10:05:44;;;;;;;3.90;0.93;;;10.00;99.90;;;;;;5113950;28;20028;-83
2021/12/29 10:08:35;;;;;;;2.30;0.80;;;10.00;99.90;;;;;;5114264;28;20469;-83
2021/12/29 10:11:04;;;;;;;4.18;0.68;;;10.00;99.90;;;;;;5095366;28;20043;-83
2021/12/29 10:13:32;;;;;;;4.05;0.68;;;10.10;99.90;;;;;;5095831;28;20050;-83
2021/12/29 10:16:24;;;;;;;3.47;0.60;;;10.10;99.90;;;;;;5096101;28;20414;-83
2021/12/29 10:18:54;;;;;;;5.40;1.00;;;10.10;99.90;;;;;;5114431;28;20084;-83
2021/12/29 10:21:23;;;;;;;4.28;1.00;;;10.10;99.90;;;;;;5096854;28;20066;-83
2021/12/29 10:23:52;;;;;;;5.18;1.15;;;10.10;99.90;;;;;;5096512;28;20111;-83
2021/12/29 10:26:23;;;;;;;5.43;1.00;;;10.10;99.90;;;;;;5096258;28;20027;-83
2021/12/29 10:29:02;;;;;;;3.60;1.10;;;10.10;99.90;;;;;;5096536;28;20495;-83
2021/12/29 10:31:43;;;;;;;6.15;0.82;;;10.20;99.90;;;;;;5095613;28;20811;-84
2021/12/29 10:34:16;;;;;;;2.05;0.60;;;10.20;99.90;;;;;;5096329;28;20027;-83
2021/12/29 10:36:49;;;;;;;4.75;0.88;;;10.10;99.90;;;;;;5095621;28;20245;-83
2021/12/29 10:39:19;;;;;;;4.82;1.23;;;10.20;99.90;;;;;;5096466;28;20023;-83
2021/12/29 10:41:49;;;;;;;5.75;1.05;;;10.20;99.90;;;;;;5095640;28;20023;-83
2021/12/29 10:44:15;;;;;;;3.80;1.00;;;10.10;99.90;;;;;;5096223;28;20031;-83
2021/12/29 10:46:41;;;;;;;2.78;0.80;;;10.10;99.90;;;;;;5095384;28;20028;-83
2021/12/29 10:49:08;;;;;;;9.88;1.13;;;10.10;99.90;;;;;;5114207;28;20035;-83
2021/12/29 10:51:46;;;;;;;6.13;1.67;;;10.00;99.90;;;;;;5095602;28;20031;-83
2021/12/29 10:54:12;;;;;;;2.92;1.00;;;10.00;99.90;;;;;;5096322;28;20077;-83
2021/12/29 10:56:40;;;;;;;2.70;1.10;;;9.90;99.90;;;;;;5113493;28;20027;-83
2021/12/29 10:59:35;;;;;;;4.05;1.13;;;9.90;99.90;;;;;;5099418;28;20387;-83
2021/12/29 11:02:01;;;;;;;3.88;0.90;;;9.90;99.90;;;;;;5096631;28;20042;-82
2021/12/29 11:04:27;;;;;;;4.78;0.88;;;9.90;99.90;;;;;;5117026;28;20039;-82
2021/12/29 11:06:56;;;;;;;4.72;1.00;;;9.90;99.90;;;;;;5117707;28;20107;-83
2021/12/29 11:09:36;;;;;;;7.93;1.17;;;9.90;99.90;;;;;;5099819;28;20024;-83
2021/12/29 11:12:10;;;;;;;4.68;1.35;;;10.00;99.90;;;;;;5099663;28;20054;-83
2021/12/29 11:14:42;;;;;;;4.43;1.17;;;10.00;99.90;;;;;;5099214;28;20080;-83
2021/12/29 11:17:11;;;;;;;5.18;1.20;;;10.00;99.90;;;;;;5117448;28;20369;-83
2021/12/29 11:19:38;;;;;;;4.72;0.95;;;10.00;99.90;;;;;;5098909;28;20465;-83
2021/12/29 11:22:12;;;;;;;4.70;1.10;;;10.00;99.90;;;;;;5098948;28;20107;-83
2021/12/29 11:24:38;;;;;;;5.07;1.45;;;10.00;99.90;;;;;;5099094;28;20028;-82
2021/12/29 11:27:16;;;;;;;4.38;1.50;;;10.00;99.90;;;;;;5099651;28;20076;-83
2021/12/29 11:29:57;;;;;;;4.72;1.35;;;10.10;99.90;;;;;;5098545;28;20059;-83
2021/12/29 11:32:35;;;;;;;4.93;1.40;;;10.10;99.90;;;;;;5099126;28;20034;-83
2021/12/29 11:35:08;;;;;;;5.43;1.33;;;10.00;99.90;;;;;;5098970;28;20027;-83
2021/12/29 11:37:37;;;;;;;3.47;1.45;;;10.10;99.90;;;;;;5098698;28;20055;-83
2021/12/29 11:40:04;;;;;;;7.10;1.35;;;10.10;99.90;;;;;;5116722;28;20028;-83
2021/12/29 11:42:30;;;;;;;5.47;1.45;;;10.10;99.90;;;;;;5098585;28;20404;-83
2021/12/29 11:44:56;;;;;;;5.80;1.17;;;10.10;99.90;;;;;;5116886;28;20016;-83
2021/12/29 11:47:22;;;;;;;5.85;1.20;;;10.20;99.90;;;;;;5098767;28;20026;-83
2021/12/29 11:49:47;;;;;;;9.68;1.80;;;10.20;99.90;;;;;;5098583;28;20038;-83
2021/12/29 11:52:34;;;;;;;3.50;0.93;;;10.30;99.90;;;;;;5098732;28;20026;-83
2021/12/29 11:55:13;;;;;;;4.00;1.13;;;10.40;99.90;;;;;;5098919;28;20038;-86
2021/12/29 11:57:40;;;;;;;6.30;1.30;;;10.40;99.90;;;;;;5098261;28;20028;-85
2021/12/29 12:00:24;;;;;;;4.22;0.90;;;10.40;99.90;;;;;;5098633;28;20038;-85
2021/12/29 12:02:52;;;;;;;7.38;1.27;;;10.40;99.90;;;;;;5116555;28;20031;-85
2021/12/29 12:05:22;;;;;;;7.72;1.30;;;10.30;99.90;;;;;;5116578;28;20032;-85
2021/12/29 12:07:49;;;;;;;5.95;1.15;;;10.30;99.90;;;;;;5098205;28;20027;-85
2021/12/29 12:10:35;;;;;;;4.63;1.00;;;10.30;99.90;;;;;;5115413;28;20036;-85
2021/12/29 12:13:05;;;;;;;7.97;1.50;;;10.30;99.90;;;;;;5098513;28;20036;-85
2021/12/29 12:15:34;;;;;;;8.52;1.58;;;10.40;99.90;;;;;;5116033;28;20115;-85
2021/12/29 12:18:06;;;;;;;8.15;1.05;;;10.40;99.90;;;;;;5098239;28;20020;-84
2021/12/29 12:20:42;;;;;;;7.68;1.33;;;10.40;99.90;;;;;;5097992;28;20039;-84
2021/12/29 12:23:09;;;;;;;8.00;1.45;;;10.40;99.90;;;;;;5098106;28;20404;-83
2021/12/29 12:25:36;;;;;;;5.78;0.90;;;10.40;99.90;;;;;;5097851;28;20031;-84
2021/12/29 12:28:03;;;;;;;7.00;1.40;;;10.40;99.90;;;;;;5098030;28;20019;-84
2021/12/29 12:30:46;;;;;;;7.20;1.58;;;10.40;99.90;;;;;;5097961;28;20042;-82
2021/12/29 12:33:22;;;;;;;6.05;1.27;;;10.40;99.90;;;;;;5098010;28;20027;-84
2021/12/29 12:35:51;;;;;;;10.23;1.50;;;10.40;99.90;;;;;;5097508;28;20346;-84
2021/12/29 12:38:34;;;;;;;8.65;1.55;;;10.40;99.90;;;;;;5115790;28;20051;-84
2021/12/29 12:41:13;;;;;;;8.05;1.30;;;10.30;99.90;;;;;;5097873;28;20027;-83
2021/12/29 12:43:59;;;;;;;6.75;1.17;;;10.30;99.90;;;;;;5097521;28;20473;-84
2021/12/29 12:46:45;;;;;;;5.30;1.42;;;10.30;99.90;;;;;;5097860;28;20384;-84
2021/12/29 12:49:46;;;;;;;10.77;1.80;;;10.30;99.90;;;;;;5097873;28;20023;-84
2021/12/29 12:52:13;;;;;;;7.47;1.60;;;10.30;99.90;;;;;;5065254;28;20039;-84
2021/12/29 12:54:49;;;;;;;5.43;1.40;;;10.30;99.90;;;;;;5097340;28;20026;-84
2021/12/29 12:57:44;;;;;;;7.28;1.50;;;10.20;99.90;;;;;;5097776;28;20066;-83
2021/12/29 13:00:18;;;;;;;6.93;1.42;;;10.20;99.90;;;;;;5097542;28;20031;-84
2021/12/29 13:02:51;;;;;;;7.03;1.10;;;10.20;99.90;;;;;;5096999;28;20019;-84
2021/12/29 13:05:23;;;;;;;7.85;1.58;;;10.20;99.90;;;;;;5097613;28;20393;-84